createdAt,value
2022-09-03T00:01:25.286Z,45.46
2022-09-03T00:06:50.698Z,46.19
2022-09-03T00:12:15.820Z,46.01
2022-09-03T00:17:43.845Z,46.16
2022-09-03T00:23:11.503Z,45.17
2022-09-03T00:28:43.481Z,44.65
2022-09-03T00:34:16.644Z,45.71
2022-09-03T00:39:40.129Z,45.50
2022-09-03T00:45:15.425Z,45.53
2022-09-03T00:50:54.076Z,45.41
2022-09-03T00:56:24.146Z,45.95
2022-09-03T01:01:52.955Z,46.28
2022-09-03T01:07:32.795Z,46.69
2022-09-03T01:13:09.134Z,47.07
2022-09-03T01:18:42.201Z,47.77
2022-09-03T01:24:17.805Z,48.87
2022-09-03T01:29:49.721Z,49.00
2022-09-03T01:35:24.305Z,48.37
2022-09-03T01:41:24.626Z,47.84
2022-09-03T01:47:00.692Z,46.43
2022-09-03T01:52:39.453Z,46.24
2022-09-03T01:58:12.486Z,46.47
2022-09-03T02:03:41.250Z,47.17
2022-09-03T02:09:04.180Z,46.91
2022-09-03T02:14:32.948Z,48.09
2022-09-03T02:19:56.349Z,48.35
2022-09-03T02:25:30.013Z,48.27
2022-09-03T02:30:54.563Z,48.27
2022-09-03T02:36:27.646Z,48.78
2022-09-03T02:42:04.052Z,48.42
2022-09-03T02:47:34.407Z,48.21
2022-09-03T02:53:02.659Z,48.34
2022-09-03T02:58:32.854Z,47.47
2022-09-03T03:04:01.784Z,47.75
2022-09-03T03:09:32.344Z,47.84
2022-09-03T03:14:55.756Z,48.20
2022-09-03T03:20:17.951Z,47.66
2022-09-03T03:25:48.610Z,47.67
2022-09-03T03:31:12.431Z,47.68
2022-09-03T03:36:38.466Z,48.13
2022-09-03T03:42:02.745Z,47.23
2022-09-03T03:47:28.901Z,47.49
2022-09-03T03:53:00.760Z,47.64
2022-09-03T03:58:32.281Z,48.51
2022-09-03T04:03:56.627Z,47.51
2022-09-03T04:09:19.620Z,46.53
2022-09-03T04:14:50.597Z,46.69
2022-09-03T04:20:13.511Z,46.51
2022-09-03T04:25:42.535Z,46.17
2022-09-03T04:31:13.503Z,46.17
2022-09-03T04:36:38.130Z,45.58
2022-09-03T04:42:07.019Z,45.65
2022-09-03T04:47:32.130Z,45.69
2022-09-03T04:53:05.842Z,44.76
2022-09-03T04:58:37.016Z,44.56
2022-09-03T05:04:05.471Z,44.42
2022-09-03T05:09:28.537Z,44.72
2022-09-03T05:14:54.829Z,44.27
2022-09-03T05:20:26.068Z,44.39
2022-09-03T05:25:58.400Z,43.87
2022-09-03T05:31:28.327Z,42.98
2022-09-03T05:36:53.159Z,42.86
2022-09-03T05:42:22.202Z,41.82
2022-09-03T05:47:46.906Z,40.82
2022-09-03T05:53:18.414Z,37.96
2022-09-03T05:58:48.185Z,34.21
2022-09-03T06:04:17.165Z,32.67
2022-09-03T06:09:47.399Z,29.41
2022-09-03T06:15:16.250Z,27.94
2022-09-03T06:20:38.896Z,26.67
2022-09-03T06:26:06.770Z,24.79
2022-09-03T06:31:30.173Z,24.73
2022-09-03T06:36:56.655Z,25.18
2022-09-03T06:42:24.374Z,24.28
2022-09-03T06:47:47.780Z,24.95
2022-09-03T06:53:16.900Z,24.77
2022-09-03T06:58:45.140Z,25.14
2022-09-03T07:04:16.393Z,25.58
2022-09-03T07:09:45.148Z,26.01
2022-09-03T07:15:12.642Z,25.63
2022-09-03T07:20:36.461Z,26.34
2022-09-03T07:26:03.150Z,26.57
2022-09-03T07:31:32.125Z,26.76
2022-09-03T07:36:56.347Z,24.82
2022-09-03T07:42:20.869Z,25.04
2022-09-03T07:47:51.112Z,25.05
2022-09-03T07:53:15.133Z,26.21
2022-09-03T07:58:42.427Z,26.23
2022-09-03T08:04:09.715Z,25.47
2022-09-03T08:09:39.317Z,25.37
2022-09-03T08:15:08.749Z,25.11
2022-09-03T08:20:37.891Z,25.10
2022-09-03T08:26:07.339Z,25.07
2022-09-03T08:31:34.658Z,24.58
2022-09-03T08:37:01.527Z,24.24
2022-09-03T08:42:34.072Z,23.21
2022-09-03T08:48:02.365Z,24.41
2022-09-03T08:53:31.388Z,24.28
2022-09-03T08:59:01.852Z,23.93
2022-09-03T09:04:32.521Z,24.28
2022-09-03T09:10:00.329Z,23.83
2022-09-03T09:15:31.808Z,22.41
2022-09-03T09:20:59.212Z,21.56
2022-09-03T09:26:23.659Z,21.38
2022-09-03T09:31:49.510Z,20.19
2022-09-03T09:37:19.193Z,21.07
2022-09-03T09:42:44.346Z,22.04
2022-09-03T09:48:24.290Z,21.82
2022-09-03T09:53:47.920Z,22.85
2022-09-03T09:59:12.985Z,23.30
2022-09-03T10:04:40.628Z,23.15
2022-09-03T10:10:05.762Z,23.16
2022-09-03T10:15:33.801Z,24.15
2022-09-03T10:21:06.334Z,24.52
2022-09-03T10:26:32.370Z,24.27
2022-09-03T10:32:04.937Z,24.15
2022-09-03T10:37:41.098Z,24.59
2022-09-03T10:43:15.909Z,24.19
2022-09-03T10:48:54.297Z,23.66
2022-09-03T10:54:32.118Z,23.33
2022-09-03T11:00:07.150Z,23.95
2022-09-03T11:05:37.130Z,24.10
2022-09-03T11:11:09.139Z,23.39
2022-09-03T11:16:33.606Z,23.29
2022-09-03T11:21:57.997Z,23.42
2022-09-03T11:27:27.913Z,23.30
2022-09-03T11:32:55.949Z,22.92
2022-09-03T11:38:27.471Z,22.89
2022-09-03T11:43:51.438Z,22.37
2022-09-03T11:49:15.131Z,22.80
2022-09-03T11:54:45.922Z,23.10
2022-09-03T12:00:18.204Z,23.84
2022-09-03T12:05:45.506Z,23.75
2022-09-03T12:11:24.720Z,24.06
2022-09-03T12:16:59.032Z,25.13
2022-09-03T12:22:28.841Z,24.68
2022-09-03T12:27:55.754Z,25.15
2022-09-03T12:33:19.926Z,25.40
2022-09-03T12:39:10.801Z,25.84
2022-09-03T12:44:41.208Z,25.65
2022-09-03T12:50:11.481Z,26.06
2022-09-03T12:55:44.773Z,25.98
2022-09-03T13:01:16.773Z,26.37
2022-09-03T13:06:49.960Z,26.64
2022-09-03T13:12:24.512Z,26.48
2022-09-03T13:18:06.547Z,26.67
2022-09-03T13:23:37.459Z,27.08
2022-09-03T13:29:15.517Z,26.70
2022-09-03T13:34:50.480Z,26.40
2022-09-03T13:40:17.566Z,26.82
2022-09-03T13:45:42.569Z,26.96
2022-09-03T13:51:15.833Z,27.70
2022-09-03T13:56:54.731Z,28.00
2022-09-03T14:02:28.232Z,27.27
2022-09-03T14:08:07.634Z,27.97
2022-09-03T14:13:40.182Z,27.98
2022-09-03T14:19:07.227Z,28.19
2022-09-03T14:24:41.681Z,28.92
2022-09-03T14:30:19.431Z,29.06
2022-09-03T14:35:50.852Z,28.74
2022-09-03T14:41:37.421Z,28.92
2022-09-03T14:47:12.130Z,29.27
2022-09-03T14:52:58.376Z,29.22
2022-09-03T14:58:38.113Z,29.49
2022-09-03T15:04:19.961Z,29.31
2022-09-03T15:09:46.385Z,29.42
2022-09-03T15:15:19.763Z,29.57
2022-09-03T15:20:49.907Z,30.19
2022-09-03T15:26:31.310Z,30.29
2022-09-03T15:32:05.128Z,30.83
2022-09-03T15:37:38.397Z,31.44
2022-09-03T15:43:09.841Z,31.13
2022-09-03T15:48:45.444Z,31.24
2022-09-03T15:54:18.519Z,31.41
2022-09-03T15:59:52.385Z,31.70
2022-09-03T16:05:20.603Z,31.77
2022-09-03T16:10:51.074Z,31.92
2022-09-03T16:16:22.871Z,31.80
2022-09-03T16:22:00.452Z,32.33
2022-09-03T16:27:31.829Z,31.68
2022-09-03T16:33:06.809Z,32.01
2022-09-03T16:38:39.211Z,32.03
2022-09-03T16:44:07.225Z,32.49
2022-09-03T16:49:42.151Z,32.33
2022-09-03T16:55:18.895Z,32.56
2022-09-03T17:00:55.740Z,32.78
2022-09-03T17:06:29.338Z,32.94
2022-09-03T17:12:07.413Z,32.98
2022-09-03T17:17:45.166Z,33.54
2022-09-03T17:23:14.494Z,34.02
2022-09-03T17:28:52.575Z,34.13
2022-09-03T17:34:27.442Z,33.67
2022-09-03T17:40:05.198Z,34.38
2022-09-03T17:45:42.857Z,34.08
2022-09-03T17:51:16.543Z,34.13
2022-09-03T17:56:49.241Z,34.21
2022-09-03T18:02:25.266Z,34.65
2022-09-03T18:08:00.299Z,34.38
2022-09-03T18:13:30.892Z,34.27
2022-09-03T18:19:04.810Z,34.47
2022-09-03T18:24:51.966Z,34.55
2022-09-03T18:30:44.436Z,34.26
2022-09-03T18:36:30.378Z,34.45
2022-09-03T18:42:18.143Z,36.62
2022-09-03T18:48:15.289Z,39.43
2022-09-03T18:54:11.660Z,39.98
2022-09-03T19:00:04.969Z,40.62
2022-09-03T19:05:53.397Z,41.13
2022-09-03T19:11:41.332Z,41.28
2022-09-03T19:17:33.147Z,42.88
2022-09-03T19:23:17.217Z,43.17
2022-09-03T19:29:06.590Z,44.77
2022-09-03T19:35:05.265Z,46.88
2022-09-03T19:40:56.723Z,49.56
2022-09-03T19:46:44.802Z,52.25
2022-09-03T19:52:37.278Z,56.86
2022-09-03T19:58:41.456Z,60.12
2022-09-03T20:04:25.334Z,62.97
2022-09-03T20:10:13.741Z,64.85
2022-09-03T20:15:49.692Z,65.51
2022-09-03T20:21:22.965Z,68.11
2022-09-03T20:26:49.735Z,70.25
2022-09-03T20:32:27.443Z,70.66
2022-09-03T20:37:56.193Z,72.89
2022-09-03T20:43:38.838Z,74.38
2022-09-03T20:49:14.067Z,75.46
2022-09-03T20:54:42.539Z,77.89
2022-09-03T21:00:08.326Z,77.39
2022-09-03T21:05:42.251Z,79.40
2022-09-03T21:11:15.956Z,80.85
2022-09-03T21:16:49.237Z,81.99
2022-09-03T21:22:25.265Z,82.25
2022-09-03T21:27:59.039Z,81.43
2022-09-03T21:33:24.908Z,82.03
2022-09-03T21:38:49.237Z,82.42
2022-09-03T21:44:16.515Z,83.63
2022-09-03T21:49:50.662Z,84.55
2022-09-03T21:55:23.799Z,84.37
2022-09-03T22:00:56.861Z,84.43
2022-09-03T22:06:26.002Z,83.99
2022-09-03T22:11:59.432Z,85.81
2022-09-03T22:17:36.786Z,87.40
2022-09-03T22:23:12.110Z,87.81
2022-09-03T22:28:43.823Z,89.14
2022-09-03T22:34:15.585Z,89.47
2022-09-03T22:39:40.614Z,91.65
2022-09-03T22:45:19.515Z,91.67
2022-09-03T22:50:48.757Z,92.50
2022-09-03T22:56:21.995Z,93.02
2022-09-03T23:01:57.860Z,94.08
2022-09-03T23:07:31.596Z,95.33
2022-09-03T23:13:04.941Z,95.80
2022-09-03T23:18:33.555Z,97.59
2022-09-03T23:24:03.637Z,97.71
2022-09-03T23:29:35.872Z,98.25
2022-09-03T23:35:00.600Z,97.94
2022-09-03T23:40:38.885Z,96.90
2022-09-03T23:46:14.593Z,99.36
2022-09-03T23:51:51.037Z,99.49
2022-09-03T23:57:22.730Z,100.00
